Somersett, Nevada
Current Conditions -  °F | °C
As of 5:55 AM on Sunday 21 Dec 2014 (Local Time) from KRNO Reporting Station
Broken Clouds Broken Clouds  
Wind Chill: 54°   Ceiling: 23000
Heat Index: 54°   Visibility: 10mi
Dew Point: 40°   Wind: 20mph
Humidity: 59%   Direction: 330°NNW
Pressure: 30.13"   Gusts: 28mph
Location:  39.5383°N, 119.938°W
Report Text: KRNO 211355Z 33017G24KT 10SM SCT044 BKN230 12/04 A3013 RMK AO2 PK WND 31032/1322 SLP181 T01220044
Loading
Personal Weather Stations






























Interactive Weather Map New forecast layout! Learn more

10-Day Weather Forecast

Advertisements
Track Severe Weather on mobile